sensor_id;sensor_type;location;lat;lon;timestamp;P1;durP1;ratioP1;P2;durP2;ratioP2
20095;SDS011;10207;50.942;6.900;2022-10-31T00:00:16;11.73;;;5.40;;
20095;SDS011;10207;50.942;6.900;2022-10-31T00:02:42;17.20;;;6.55;;
20095;SDS011;10207;50.942;6.900;2022-10-31T00:05:08;17.63;;;5.47;;
20095;SDS011;10207;50.942;6.900;2022-10-31T00:07:33;10.75;;;5.28;;
20095;SDS011;10207;50.942;6.900;2022-10-31T00:09:59;14.95;;;5.60;;
20095;SDS011;10207;50.942;6.900;2022-10-31T00:12:25;17.30;;;5.75;;
20095;SDS011;10207;50.942;6.900;2022-10-31T00:14:51;20.48;;;6.15;;
20095;SDS011;10207;50.942;6.900;2022-10-31T00:17:17;12.68;;;5.25;;
20095;SDS011;10207;50.942;6.900;2022-10-31T00:19:42;15.52;;;5.93;;
20095;SDS011;10207;50.942;6.900;2022-10-31T00:22:08;14.77;;;6.07;;
20095;SDS011;10207;50.942;6.900;2022-10-31T00:24:34;10.57;;;5.60;;
20095;SDS011;10207;50.942;6.900;2022-10-31T00:26:59;13.93;;;5.07;;
20095;SDS011;10207;50.942;6.900;2022-10-31T00:29:26;10.35;;;5.63;;
20095;SDS011;10207;50.942;6.900;2022-10-31T00:31:52;15.00;;;5.53;;
20095;SDS011;10207;50.942;6.900;2022-10-31T00:34:17;14.05;;;5.97;;
20095;SDS011;10207;50.942;6.900;2022-10-31T00:36:43;11.40;;;5.90;;
20095;SDS011;10207;50.942;6.900;2022-10-31T00:39:12;13.98;;;5.72;;
20095;SDS011;10207;50.942;6.900;2022-10-31T00:41:38;12.88;;;5.45;;
20095;SDS011;10207;50.942;6.900;2022-10-31T00:44:09;13.18;;;5.78;;
20095;SDS011;10207;50.942;6.900;2022-10-31T00:46:35;13.00;;;5.50;;
20095;SDS011;10207;50.942;6.900;2022-10-31T00:49:00;12.48;;;6.10;;
20095;SDS011;10207;50.942;6.900;2022-10-31T00:51:26;9.57;;;4.80;;
20095;SDS011;10207;50.942;6.900;2022-10-31T00:53:52;14.77;;;5.32;;
20095;SDS011;10207;50.942;6.900;2022-10-31T00:56:18;11.32;;;5.43;;
20095;SDS011;10207;50.942;6.900;2022-10-31T00:58:44;12.45;;;5.47;;
20095;SDS011;10207;50.942;6.900;2022-10-31T01:01:09;14.40;;;5.28;;
20095;SDS011;10207;50.942;6.900;2022-10-31T01:03:35;13.40;;;5.43;;
20095;SDS011;10207;50.942;6.900;2022-10-31T01:06:05;12.70;;;5.15;;
20095;SDS011;10207;50.942;6.900;2022-10-31T01:08:32;11.35;;;5.85;;
20095;SDS011;10207;50.942;6.900;2022-10-31T01:10:59;17.85;;;6.47;;
20095;SDS011;10207;50.942;6.900;2022-10-31T01:13:25;11.90;;;6.35;;
20095;SDS011;10207;50.942;6.900;2022-10-31T01:15:54;23.90;;;7.32;;
20095;SDS011;10207;50.942;6.900;2022-10-31T01:18:20;11.80;;;5.35;;
20095;SDS011;10207;50.942;6.900;2022-10-31T01:20:46;15.00;;;6.50;;
20095;SDS011;10207;50.942;6.900;2022-10-31T01:23:11;14.45;;;6.07;;
20095;SDS011;10207;50.942;6.900;2022-10-31T01:25:37;19.05;;;6.15;;
20095;SDS011;10207;50.942;6.900;2022-10-31T01:28:03;15.13;;;6.28;;
20095;SDS011;10207;50.942;6.900;2022-10-31T01:30:29;16.25;;;6.50;;
20095;SDS011;10207;50.942;6.900;2022-10-31T01:32:54;21.90;;;6.65;;
20095;SDS011;10207;50.942;6.900;2022-10-31T01:35:20;11.48;;;6.30;;
20095;SDS011;10207;50.942;6.900;2022-10-31T01:37:46;13.63;;;6.13;;
20095;SDS011;10207;50.942;6.900;2022-10-31T01:40:12;15.10;;;6.13;;
20095;SDS011;10207;50.942;6.900;2022-10-31T01:42:37;15.30;;;5.88;;
20095;SDS011;10207;50.942;6.900;2022-10-31T01:45:04;15.95;;;6.68;;
20095;SDS011;10207;50.942;6.900;2022-10-31T01:47:32;17.00;;;7.18;;
20095;SDS011;10207;50.942;6.900;2022-10-31T01:49:59;12.55;;;5.93;;
20095;SDS011;10207;50.942;6.900;2022-10-31T01:52:27;11.95;;;5.78;;
20095;SDS011;10207;50.942;6.900;2022-10-31T01:55:05;14.60;;;6.32;;
20095;SDS011;10207;50.942;6.900;2022-10-31T01:57:33;11.90;;;6.22;;
20095;SDS011;10207;50.942;6.900;2022-10-31T02:00:00;12.93;;;6.80;;
20095;SDS011;10207;50.942;6.900;2022-10-31T02:02:27;16.73;;;6.90;;
20095;SDS011;10207;50.942;6.900;2022-10-31T02:04:55;13.38;;;5.65;;
20095;SDS011;10207;50.942;6.900;2022-10-31T02:07:30;12.70;;;6.50;;
20095;SDS011;10207;50.942;6.900;2022-10-31T02:09:58;13.82;;;6.22;;
20095;SDS011;10207;50.942;6.900;2022-10-31T02:12:24;14.13;;;7.20;;
20095;SDS011;10207;50.942;6.900;2022-10-31T02:14:55;13.00;;;6.72;;
20095;SDS011;10207;50.942;6.900;2022-10-31T02:17:21;16.30;;;6.45;;
20095;SDS011;10207;50.942;6.900;2022-10-31T02:25:20;15.00;;;7.18;;
20095;SDS011;10207;50.942;6.900;2022-10-31T02:30:27;17.38;;;7.53;;
20095;SDS011;10207;50.942;6.900;2022-10-31T02:37:57;17.48;;;6.35;;
20095;SDS011;10207;50.942;6.900;2022-10-31T02:40:26;16.50;;;6.70;;
20095;SDS011;10207;50.942;6.900;2022-10-31T02:46:07;12.90;;;6.97;;
20095;SDS011;10207;50.942;6.900;2022-10-31T02:48:34;14.52;;;6.82;;
20095;SDS011;10207;50.942;6.900;2022-10-31T02:51:03;16.95;;;7.40;;
20095;SDS011;10207;50.942;6.900;2022-10-31T02:53:33;18.40;;;7.72;;
20095;SDS011;10207;50.942;6.900;2022-10-31T02:56:06;18.25;;;7.55;;
20095;SDS011;10207;50.942;6.900;2022-10-31T02:58:36;17.58;;;7.15;;
20095;SDS011;10207;50.942;6.900;2022-10-31T03:03:57;17.13;;;7.05;;
20095;SDS011;10207;50.942;6.900;2022-10-31T03:06:45;23.45;;;9.52;;
20095;SDS011;10207;50.942;6.900;2022-10-31T03:12:04;15.00;;;8.02;;
20095;SDS011;10207;50.942;6.900;2022-10-31T03:14:31;19.42;;;8.10;;
20095;SDS011;10207;50.942;6.900;2022-10-31T03:17:00;20.60;;;7.93;;
20095;SDS011;10207;50.942;6.900;2022-10-31T03:19:30;18.92;;;7.78;;
20095;SDS011;10207;50.942;6.900;2022-10-31T03:21:57;19.02;;;8.05;;
20095;SDS011;10207;50.942;6.900;2022-10-31T03:24:25;17.10;;;6.75;;
20095;SDS011;10207;50.942;6.900;2022-10-31T03:26:53;16.98;;;7.15;;
20095;SDS011;10207;50.942;6.900;2022-10-31T03:29:21;17.70;;;7.18;;
20095;SDS011;10207;50.942;6.900;2022-10-31T03:31:49;17.85;;;7.63;;
20095;SDS011;10207;50.942;6.900;2022-10-31T03:34:16;16.08;;;6.88;;
20095;SDS011;10207;50.942;6.900;2022-10-31T03:36:43;13.27;;;6.40;;
20095;SDS011;10207;50.942;6.900;2022-10-31T03:39:11;16.15;;;6.95;;
20095;SDS011;10207;50.942;6.900;2022-10-31T03:41:39;18.65;;;6.90;;
20095;SDS011;10207;50.942;6.900;2022-10-31T03:44:08;14.82;;;6.35;;
20095;SDS011;10207;50.942;6.900;2022-10-31T03:46:37;16.42;;;8.20;;
20095;SDS011;10207;50.942;6.900;2022-10-31T03:49:02;12.15;;;6.25;;
20095;SDS011;10207;50.942;6.900;2022-10-31T03:52:19;17.83;;;7.22;;
20095;SDS011;10207;50.942;6.900;2022-10-31T03:54:26;14.77;;;7.10;;
20095;SDS011;10207;50.942;6.900;2022-10-31T03:57:08;11.73;;;6.57;;
20095;SDS011;10207;50.942;6.900;2022-10-31T03:59:36;15.75;;;6.82;;
20095;SDS011;10207;50.942;6.900;2022-10-31T04:02:04;16.08;;;7.15;;
20095;SDS011;10207;50.942;6.900;2022-10-31T04:04:31;15.15;;;6.80;;
20095;SDS011;10207;50.942;6.900;2022-10-31T04:06:58;15.10;;;6.28;;
20095;SDS011;10207;50.942;6.900;2022-10-31T04:09:25;13.38;;;7.18;;
20095;SDS011;10207;50.942;6.900;2022-10-31T04:11:53;13.75;;;6.70;;
20095;SDS011;10207;50.942;6.900;2022-10-31T04:14:53;12.88;;;7.03;;
20095;SDS011;10207;50.942;6.900;2022-10-31T04:17:22;14.75;;;6.47;;
20095;SDS011;10207;50.942;6.900;2022-10-31T04:19:49;15.02;;;6.43;;
20095;SDS011;10207;50.942;6.900;2022-10-31T04:22:14;15.43;;;6.38;;
20095;SDS011;10207;50.942;6.900;2022-10-31T04:24:40;15.25;;;6.72;;
20095;SDS011;10207;50.942;6.900;2022-10-31T04:27:07;12.32;;;7.05;;
20095;SDS011;10207;50.942;6.900;2022-10-31T04:29:33;20.77;;;7.00;;
20095;SDS011;10207;50.942;6.900;2022-10-31T04:31:59;17.75;;;6.68;;
20095;SDS011;10207;50.942;6.900;2022-10-31T04:34:25;12.35;;;7.20;;
20095;SDS011;10207;50.942;6.900;2022-10-31T04:36:50;13.88;;;6.75;;
20095;SDS011;10207;50.942;6.900;2022-10-31T04:39:17;16.77;;;6.47;;
20095;SDS011;10207;50.942;6.900;2022-10-31T04:42:08;11.25;;;5.88;;
20095;SDS011;10207;50.942;6.900;2022-10-31T04:44:34;14.98;;;6.80;;
20095;SDS011;10207;50.942;6.900;2022-10-31T04:47:00;14.45;;;5.70;;
20095;SDS011;10207;50.942;6.900;2022-10-31T04:49:26;11.77;;;5.93;;
20095;SDS011;10207;50.942;6.900;2022-10-31T04:51:52;10.98;;;5.65;;
20095;SDS011;10207;50.942;6.900;2022-10-31T04:54:18;12.57;;;6.35;;
20095;SDS011;10207;50.942;6.900;2022-10-31T04:57:02;15.02;;;6.35;;
20095;SDS011;10207;50.942;6.900;2022-10-31T04:59:29;14.25;;;6.55;;
20095;SDS011;10207;50.942;6.900;2022-10-31T05:01:55;9.75;;;5.70;;
20095;SDS011;10207;50.942;6.900;2022-10-31T05:04:28;13.93;;;6.40;;
20095;SDS011;10207;50.942;6.900;2022-10-31T05:06:54;14.77;;;5.80;;
20095;SDS011;10207;50.942;6.900;2022-10-31T05:09:19;11.73;;;5.90;;
20095;SDS011;10207;50.942;6.900;2022-10-31T05:11:46;10.75;;;5.80;;
20095;SDS011;10207;50.942;6.900;2022-10-31T05:14:31;18.40;;;6.20;;
20095;SDS011;10207;50.942;6.900;2022-10-31T05:17:15;11.65;;;5.85;;
20095;SDS011;10207;50.942;6.900;2022-10-31T05:20:04;14.85;;;6.20;;
20095;SDS011;10207;50.942;6.900;2022-10-31T05:22:52;15.55;;;5.78;;
20095;SDS011;10207;50.942;6.900;2022-10-31T05:25:18;12.85;;;6.40;;
20095;SDS011;10207;50.942;6.900;2022-10-31T05:27:45;14.95;;;6.55;;
20095;SDS011;10207;50.942;6.900;2022-10-31T05:30:12;13.27;;;6.07;;
20095;SDS011;10207;50.942;6.900;2022-10-31T05:32:42;13.70;;;6.07;;
20095;SDS011;10207;50.942;6.900;2022-10-31T05:35:43;13.85;;;5.97;;
20095;SDS011;10207;50.942;6.900;2022-10-31T05:38:24;14.75;;;6.32;;
20095;SDS011;10207;50.942;6.900;2022-10-31T05:40:50;10.77;;;5.68;;
20095;SDS011;10207;50.942;6.900;2022-10-31T05:43:15;17.85;;;5.82;;
20095;SDS011;10207;50.942;6.900;2022-10-31T05:45:41;11.63;;;6.35;;
20095;SDS011;10207;50.942;6.900;2022-10-31T05:48:18;15.35;;;7.35;;
20095;SDS011;10207;50.942;6.900;2022-10-31T05:51:04;16.10;;;5.80;;
20095;SDS011;10207;50.942;6.900;2022-10-31T05:53:30;12.20;;;5.95;;
20095;SDS011;10207;50.942;6.900;2022-10-31T05:55:56;14.30;;;5.97;;
20095;SDS011;10207;50.942;6.900;2022-10-31T05:58:22;13.57;;;6.38;;
20095;SDS011;10207;50.942;6.900;2022-10-31T06:00:59;18.55;;;6.72;;
20095;SDS011;10207;50.942;6.900;2022-10-31T06:03:25;12.93;;;5.75;;
20095;SDS011;10207;50.942;6.900;2022-10-31T06:05:54;14.70;;;6.75;;
20095;SDS011;10207;50.942;6.900;2022-10-31T06:08:22;12.68;;;6.65;;
20095;SDS011;10207;50.942;6.900;2022-10-31T06:10:48;15.88;;;6.32;;
20095;SDS011;10207;50.942;6.900;2022-10-31T06:13:19;11.18;;;6.15;;
20095;SDS011;10207;50.942;6.900;2022-10-31T06:15:52;14.25;;;6.38;;
20095;SDS011;10207;50.942;6.900;2022-10-31T06:18:22;10.05;;;5.65;;
20095;SDS011;10207;50.942;6.900;2022-10-31T06:20:50;9.45;;;5.63;;
20095;SDS011;10207;50.942;6.900;2022-10-31T06:23:16;14.70;;;7.22;;
20095;SDS011;10207;50.942;6.900;2022-10-31T06:25:43;17.70;;;7.00;;
20095;SDS011;10207;50.942;6.900;2022-10-31T06:28:13;15.93;;;6.18;;
20095;SDS011;10207;50.942;6.900;2022-10-31T06:30:51;19.25;;;7.20;;
20095;SDS011;10207;50.942;6.900;2022-10-31T06:33:17;12.68;;;6.15;;
20095;SDS011;10207;50.942;6.900;2022-10-31T06:35:53;11.55;;;6.15;;
20095;SDS011;10207;50.942;6.900;2022-10-31T06:38:19;15.35;;;6.13;;
20095;SDS011;10207;50.942;6.900;2022-10-31T06:40:45;10.43;;;5.95;;
20095;SDS011;10207;50.942;6.900;2022-10-31T06:43:20;12.40;;;6.25;;
20095;SDS011;10207;50.942;6.900;2022-10-31T06:45:46;15.30;;;5.95;;
20095;SDS011;10207;50.942;6.900;2022-10-31T06:48:12;14.35;;;5.80;;
20095;SDS011;10207;50.942;6.900;2022-10-31T06:50:48;12.77;;;6.75;;
20095;SDS011;10207;50.942;6.900;2022-10-31T06:53:14;17.00;;;7.13;;
20095;SDS011;10207;50.942;6.900;2022-10-31T06:55:40;14.27;;;6.15;;
20095;SDS011;10207;50.942;6.900;2022-10-31T06:58:08;12.43;;;6.35;;
20095;SDS011;10207;50.942;6.900;2022-10-31T07:00:34;13.88;;;6.55;;
20095;SDS011;10207;50.942;6.900;2022-10-31T07:03:05;13.52;;;5.85;;
20095;SDS011;10207;50.942;6.900;2022-10-31T07:05:32;10.73;;;5.95;;
20095;SDS011;10207;50.942;6.900;2022-10-31T07:07:59;13.30;;;6.25;;
20095;SDS011;10207;50.942;6.900;2022-10-31T07:10:28;15.05;;;6.07;;
20095;SDS011;10207;50.942;6.900;2022-10-31T07:13:00;14.35;;;5.70;;
20095;SDS011;10207;50.942;6.900;2022-10-31T07:15:29;10.88;;;5.80;;
20095;SDS011;10207;50.942;6.900;2022-10-31T07:18:00;16.58;;;5.75;;
20095;SDS011;10207;50.942;6.900;2022-10-31T07:20:27;12.90;;;6.53;;
20095;SDS011;10207;50.942;6.900;2022-10-31T07:22:53;15.20;;;6.55;;
20095;SDS011;10207;50.942;6.900;2022-10-31T07:25:19;14.00;;;6.50;;
20095;SDS011;10207;50.942;6.900;2022-10-31T07:28:05;14.07;;;5.78;;
20095;SDS011;10207;50.942;6.900;2022-10-31T07:30:31;11.10;;;5.47;;
20095;SDS011;10207;50.942;6.900;2022-10-31T07:32:56;12.45;;;5.78;;
20095;SDS011;10207;50.942;6.900;2022-10-31T07:35:27;15.52;;;6.75;;
20095;SDS011;10207;50.942;6.900;2022-10-31T07:37:56;14.75;;;6.20;;
20095;SDS011;10207;50.942;6.900;2022-10-31T07:40:22;13.88;;;6.05;;
20095;SDS011;10207;50.942;6.900;2022-10-31T07:42:49;11.65;;;6.03;;
20095;SDS011;10207;50.942;6.900;2022-10-31T07:45:34;11.77;;;5.90;;
20095;SDS011;10207;50.942;6.900;2022-10-31T07:48:34;12.75;;;5.65;;
20095;SDS011;10207;50.942;6.900;2022-10-31T07:51:19;13.73;;;6.43;;
20095;SDS011;10207;50.942;6.900;2022-10-31T07:54:03;11.80;;;6.20;;
20095;SDS011;10207;50.942;6.900;2022-10-31T07:56:31;10.20;;;6.43;;
20095;SDS011;10207;50.942;6.900;2022-10-31T07:58:56;10.93;;;5.57;;
20095;SDS011;10207;50.942;6.900;2022-10-31T08:01:22;15.15;;;6.22;;
20095;SDS011;10207;50.942;6.900;2022-10-31T08:04:08;13.75;;;7.30;;
20095;SDS011;10207;50.942;6.900;2022-10-31T08:06:54;15.55;;;5.68;;
20095;SDS011;10207;50.942;6.900;2022-10-31T08:09:29;13.93;;;6.28;;
20095;SDS011;10207;50.942;6.900;2022-10-31T08:11:58;16.00;;;5.95;;
20095;SDS011;10207;50.942;6.900;2022-10-31T08:14:24;12.50;;;5.95;;
20095;SDS011;10207;50.942;6.900;2022-10-31T08:16:52;13.85;;;6.55;;
20095;SDS011;10207;50.942;6.900;2022-10-31T08:19:17;12.00;;;6.00;;
20095;SDS011;10207;50.942;6.900;2022-10-31T08:21:43;15.70;;;5.35;;
20095;SDS011;10207;50.942;6.900;2022-10-31T08:24:09;12.68;;;6.10;;
20095;SDS011;10207;50.942;6.900;2022-10-31T08:26:35;15.43;;;6.20;;
20095;SDS011;10207;50.942;6.900;2022-10-31T08:29:03;13.82;;;6.57;;
20095;SDS011;10207;50.942;6.900;2022-10-31T08:31:32;15.45;;;6.25;;
20095;SDS011;10207;50.942;6.900;2022-10-31T08:34:20;11.20;;;7.25;;
20095;SDS011;10207;50.942;6.900;2022-10-31T08:37:04;11.05;;;5.65;;
20095;SDS011;10207;50.942;6.900;2022-10-31T08:39:38;10.45;;;5.70;;
20095;SDS011;10207;50.942;6.900;2022-10-31T08:42:04;12.63;;;5.45;;
20095;SDS011;10207;50.942;6.900;2022-10-31T08:44:30;11.30;;;5.15;;
20095;SDS011;10207;50.942;6.900;2022-10-31T08:46:56;12.55;;;5.88;;
20095;SDS011;10207;50.942;6.900;2022-10-31T08:49:22;15.95;;;5.13;;
20095;SDS011;10207;50.942;6.900;2022-10-31T08:51:48;12.82;;;5.15;;
20095;SDS011;10207;50.942;6.900;2022-10-31T08:54:14;14.10;;;5.60;;
20095;SDS011;10207;50.942;6.900;2022-10-31T08:56:52;12.45;;;6.15;;
20095;SDS011;10207;50.942;6.900;2022-10-31T08:59:29;9.70;;;4.97;;
20095;SDS011;10207;50.942;6.900;2022-10-31T09:02:13;12.95;;;6.18;;
20095;SDS011;10207;50.942;6.900;2022-10-31T09:04:39;12.20;;;5.28;;
20095;SDS011;10207;50.942;6.900;2022-10-31T09:07:05;14.95;;;5.15;;
20095;SDS011;10207;50.942;6.900;2022-10-31T09:09:31;15.20;;;5.65;;
20095;SDS011;10207;50.942;6.900;2022-10-31T09:11:56;13.98;;;5.38;;
20095;SDS011;10207;50.942;6.900;2022-10-31T09:14:22;12.65;;;5.57;;
20095;SDS011;10207;50.942;6.900;2022-10-31T09:17:11;12.38;;;5.85;;
20095;SDS011;10207;50.942;6.900;2022-10-31T09:19:55;11.07;;;5.18;;
20095;SDS011;10207;50.942;6.900;2022-10-31T09:22:26;13.27;;;5.50;;
20095;SDS011;10207;50.942;6.900;2022-10-31T09:24:52;13.80;;;6.03;;
20095;SDS011;10207;50.942;6.900;2022-10-31T09:27:17;13.55;;;5.45;;
20095;SDS011;10207;50.942;6.900;2022-10-31T09:29:46;13.80;;;5.70;;
20095;SDS011;10207;50.942;6.900;2022-10-31T09:32:12;11.30;;;5.70;;
20095;SDS011;10207;50.942;6.900;2022-10-31T09:34:44;13.30;;;5.80;;
20095;SDS011;10207;50.942;6.900;2022-10-31T09:37:14;16.80;;;5.80;;
20095;SDS011;10207;50.942;6.900;2022-10-31T09:39:39;10.43;;;5.00;;
20095;SDS011;10207;50.942;6.900;2022-10-31T09:45:10;12.10;;;5.50;;
20095;SDS011;10207;50.942;6.900;2022-10-31T09:47:50;10.10;;;4.68;;
20095;SDS011;10207;50.942;6.900;2022-10-31T09:50:41;13.70;;;4.20;;
20095;SDS011;10207;50.942;6.900;2022-10-31T09:53:44;11.55;;;4.70;;
20095;SDS011;10207;50.942;6.900;2022-10-31T09:56:17;10.32;;;6.05;;
20095;SDS011;10207;50.942;6.900;2022-10-31T09:58:49;10.10;;;5.20;;
20095;SDS011;10207;50.942;6.900;2022-10-31T10:02:19;12.10;;;5.43;;
20095;SDS011;10207;50.942;6.900;2022-10-31T10:04:17;13.15;;;5.13;;
20095;SDS011;10207;50.942;6.900;2022-10-31T10:06:56;11.55;;;5.32;;
20095;SDS011;10207;50.942;6.900;2022-10-31T10:09:49;21.73;;;6.55;;
20095;SDS011;10207;50.942;6.900;2022-10-31T10:17:39;10.98;;;4.82;;
20095;SDS011;10207;50.942;6.900;2022-10-31T10:20:16;10.18;;;4.78;;
20095;SDS011;10207;50.942;6.900;2022-10-31T10:25:28;16.92;;;5.47;;
20095;SDS011;10207;50.942;6.900;2022-10-31T10:28:08;12.40;;;4.70;;
20095;SDS011;10207;50.942;6.900;2022-10-31T10:30:39;12.05;;;5.32;;
20095;SDS011;10207;50.942;6.900;2022-10-31T10:33:10;11.02;;;5.00;;
20095;SDS011;10207;50.942;6.900;2022-10-31T10:40:33;11.70;;;5.57;;
20095;SDS011;10207;50.942;6.900;2022-10-31T10:45:55;14.82;;;4.70;;
20095;SDS011;10207;50.942;6.900;2022-10-31T10:48:43;11.55;;;4.45;;
20095;SDS011;10207;50.942;6.900;2022-10-31T10:52:13;12.27;;;4.85;;
20095;SDS011;10207;50.942;6.900;2022-10-31T10:59:16;12.02;;;5.32;;
20095;SDS011;10207;50.942;6.900;2022-10-31T11:01:43;11.73;;;5.22;;
20095;SDS011;10207;50.942;6.900;2022-10-31T11:04:21;11.40;;;5.10;;
20095;SDS011;10207;50.942;6.900;2022-10-31T11:07:02;10.48;;;4.25;;
20095;SDS011;10207;50.942;6.900;2022-10-31T11:09:28;13.48;;;4.30;;
20095;SDS011;10207;50.942;6.900;2022-10-31T11:11:54;14.02;;;3.85;;
20095;SDS011;10207;50.942;6.900;2022-10-31T11:14:21;12.82;;;3.95;;
20095;SDS011;10207;50.942;6.900;2022-10-31T11:16:49;9.98;;;4.57;;
20095;SDS011;10207;50.942;6.900;2022-10-31T11:19:20;8.80;;;3.90;;
20095;SDS011;10207;50.942;6.900;2022-10-31T11:21:47;12.43;;;4.78;;
20095;SDS011;10207;50.942;6.900;2022-10-31T11:24:18;11.10;;;3.92;;
20095;SDS011;10207;50.942;6.900;2022-10-31T11:26:45;8.43;;;3.75;;
20095;SDS011;10207;50.942;6.900;2022-10-31T11:29:21;9.57;;;3.95;;
20095;SDS011;10207;50.942;6.900;2022-10-31T11:31:47;12.23;;;3.90;;
20095;SDS011;10207;50.942;6.900;2022-10-31T11:34:24;16.27;;;4.55;;
20095;SDS011;10207;50.942;6.900;2022-10-31T11:36:51;8.43;;;3.78;;
20095;SDS011;10207;50.942;6.900;2022-10-31T11:39:18;11.35;;;3.63;;
20095;SDS011;10207;50.942;6.900;2022-10-31T11:41:45;7.60;;;3.53;;
20095;SDS011;10207;50.942;6.900;2022-10-31T11:44:12;12.48;;;4.03;;
20095;SDS011;10207;50.942;6.900;2022-10-31T11:46:39;11.30;;;3.83;;
20095;SDS011;10207;50.942;6.900;2022-10-31T11:49:12;8.95;;;3.85;;
20095;SDS011;10207;50.942;6.900;2022-10-31T11:51:40;9.90;;;3.38;;
20095;SDS011;10207;50.942;6.900;2022-10-31T11:54:05;11.38;;;3.70;;
20095;SDS011;10207;50.942;6.900;2022-10-31T11:56:39;11.00;;;3.20;;
20095;SDS011;10207;50.942;6.900;2022-10-31T11:59:06;11.55;;;3.92;;
20095;SDS011;10207;50.942;6.900;2022-10-31T12:01:39;10.70;;;4.43;;
20095;SDS011;10207;50.942;6.900;2022-10-31T12:04:11;15.93;;;4.07;;
20095;SDS011;10207;50.942;6.900;2022-10-31T12:06:38;11.98;;;3.60;;
20095;SDS011;10207;50.942;6.900;2022-10-31T12:09:10;12.15;;;4.50;;
20095;SDS011;10207;50.942;6.900;2022-10-31T12:14:14;9.23;;;3.85;;
20095;SDS011;10207;50.942;6.900;2022-10-31T12:20:07;10.43;;;4.38;;
20095;SDS011;10207;50.942;6.900;2022-10-31T12:22:35;9.68;;;3.33;;
20095;SDS011;10207;50.942;6.900;2022-10-31T12:38:16;12.43;;;3.85;;
20095;SDS011;10207;50.942;6.900;2022-10-31T12:43:22;13.00;;;5.15;;
20095;SDS011;10207;50.942;6.900;2022-10-31T12:49:00;11.13;;;3.70;;
20095;SDS011;10207;50.942;6.900;2022-10-31T13:01:19;10.63;;;3.25;;
20095;SDS011;10207;50.942;6.900;2022-10-31T13:06:16;12.63;;;3.28;;
20095;SDS011;10207;50.942;6.900;2022-10-31T13:08:51;9.55;;;2.92;;
20095;SDS011;10207;50.942;6.900;2022-10-31T13:12:00;6.60;;;2.80;;
20095;SDS011;10207;50.942;6.900;2022-10-31T13:14:07;9.68;;;2.60;;
20095;SDS011;10207;50.942;6.900;2022-10-31T13:16:38;14.30;;;3.72;;
20095;SDS011;10207;50.942;6.900;2022-10-31T13:19:09;8.32;;;3.42;;
20095;SDS011;10207;50.942;6.900;2022-10-31T13:24:10;12.02;;;3.88;;
20095;SDS011;10207;50.942;6.900;2022-10-31T13:26:38;12.50;;;4.15;;
20095;SDS011;10207;50.942;6.900;2022-10-31T13:31:34;6.47;;;3.88;;
20095;SDS011;10207;50.942;6.900;2022-10-31T13:34:03;7.18;;;2.88;;
20095;SDS011;10207;50.942;6.900;2022-10-31T13:41:32;7.60;;;3.10;;
20095;SDS011;10207;50.942;6.900;2022-10-31T13:44:01;11.18;;;3.22;;
20095;SDS011;10207;50.942;6.900;2022-10-31T13:48:56;6.68;;;2.83;;
20095;SDS011;10207;50.942;6.900;2022-10-31T13:51:26;8.52;;;3.30;;
20095;SDS011;10207;50.942;6.900;2022-10-31T13:56:21;15.75;;;3.30;;
20095;SDS011;10207;50.942;6.900;2022-10-31T13:59:01;14.38;;;4.05;;
20095;SDS011;10207;50.942;6.900;2022-10-31T14:01:27;11.00;;;3.30;;
20095;SDS011;10207;50.942;6.900;2022-10-31T14:04:13;12.80;;;3.03;;
20095;SDS011;10207;50.942;6.900;2022-10-31T14:06:53;12.63;;;3.20;;
20095;SDS011;10207;50.942;6.900;2022-10-31T14:11:46;10.95;;;3.45;;
20095;SDS011;10207;50.942;6.900;2022-10-31T14:14:12;11.05;;;2.85;;
20095;SDS011;10207;50.942;6.900;2022-10-31T14:16:38;11.70;;;3.30;;
20095;SDS011;10207;50.942;6.900;2022-10-31T14:19:06;10.77;;;3.47;;
20095;SDS011;10207;50.942;6.900;2022-10-31T14:21:40;8.85;;;3.20;;
20095;SDS011;10207;50.942;6.900;2022-10-31T14:24:13;8.50;;;3.72;;
20095;SDS011;10207;50.942;6.900;2022-10-31T14:26:39;8.48;;;3.50;;
20095;SDS011;10207;50.942;6.900;2022-10-31T14:29:38;10.40;;;3.20;;
20095;SDS011;10207;50.942;6.900;2022-10-31T14:31:59;8.73;;;3.08;;
20095;SDS011;10207;50.942;6.900;2022-10-31T14:34:30;14.15;;;4.68;;
20095;SDS011;10207;50.942;6.900;2022-10-31T14:37:01;9.02;;;3.03;;
20095;SDS011;10207;50.942;6.900;2022-10-31T14:42:06;8.20;;;3.42;;
20095;SDS011;10207;50.942;6.900;2022-10-31T14:44:45;14.95;;;3.53;;
20095;SDS011;10207;50.942;6.900;2022-10-31T14:52:39;9.73;;;3.20;;
20095;SDS011;10207;50.942;6.900;2022-10-31T14:55:06;10.63;;;3.20;;
20095;SDS011;10207;50.942;6.900;2022-10-31T14:57:35;6.95;;;2.95;;
20095;SDS011;10207;50.942;6.900;2022-10-31T15:00:06;11.02;;;3.70;;
20095;SDS011;10207;50.942;6.900;2022-10-31T15:02:43;13.30;;;3.00;;
20095;SDS011;10207;50.942;6.900;2022-10-31T15:05:11;5.78;;;3.35;;
20095;SDS011;10207;50.942;6.900;2022-10-31T15:07:48;10.20;;;3.17;;
20095;SDS011;10207;50.942;6.900;2022-10-31T15:10:21;8.00;;;3.03;;
20095;SDS011;10207;50.942;6.900;2022-10-31T15:12:47;8.68;;;3.33;;
20095;SDS011;10207;50.942;6.900;2022-10-31T15:15:14;6.20;;;2.92;;
20095;SDS011;10207;50.942;6.900;2022-10-31T15:17:44;12.20;;;2.85;;
20095;SDS011;10207;50.942;6.900;2022-10-31T15:20:17;8.20;;;3.20;;
20095;SDS011;10207;50.942;6.900;2022-10-31T15:22:43;8.07;;;3.10;;
20095;SDS011;10207;50.942;6.900;2022-10-31T15:25:18;15.35;;;3.38;;
20095;SDS011;10207;50.942;6.900;2022-10-31T15:27:45;12.30;;;3.00;;
20095;SDS011;10207;50.942;6.900;2022-10-31T15:30:21;6.80;;;2.97;;
20095;SDS011;10207;50.942;6.900;2022-10-31T15:32:47;11.35;;;2.97;;
20095;SDS011;10207;50.942;6.900;2022-10-31T15:35:35;9.82;;;2.58;;
20095;SDS011;10207;50.942;6.900;2022-10-31T15:38:00;7.60;;;3.30;;
20095;SDS011;10207;50.942;6.900;2022-10-31T15:40:26;9.82;;;3.17;;
20095;SDS011;10207;50.942;6.900;2022-10-31T15:43:00;11.85;;;3.60;;
20095;SDS011;10207;50.942;6.900;2022-10-31T15:45:28;10.05;;;2.80;;
20095;SDS011;10207;50.942;6.900;2022-10-31T15:50:45;12.27;;;3.65;;
20095;SDS011;10207;50.942;6.900;2022-10-31T15:53:22;8.20;;;2.50;;
20095;SDS011;10207;50.942;6.900;2022-10-31T15:55:53;11.30;;;3.90;;
20095;SDS011;10207;50.942;6.900;2022-10-31T15:58:19;5.63;;;3.20;;
20095;SDS011;10207;50.942;6.900;2022-10-31T16:00:45;10.05;;;3.35;;
20095;SDS011;10207;50.942;6.900;2022-10-31T16:03:26;6.30;;;2.90;;
20095;SDS011;10207;50.942;6.900;2022-10-31T16:05:53;9.10;;;3.40;;
20095;SDS011;10207;50.942;6.900;2022-10-31T16:08:45;6.50;;;3.20;;
20095;SDS011;10207;50.942;6.900;2022-10-31T16:13:40;14.55;;;3.50;;
20095;SDS011;10207;50.942;6.900;2022-10-31T16:16:13;9.48;;;2.88;;
20095;SDS011;10207;50.942;6.900;2022-10-31T16:18:40;13.63;;;3.55;;
20095;SDS011;10207;50.942;6.900;2022-10-31T16:21:06;8.75;;;2.90;;
20095;SDS011;10207;50.942;6.900;2022-10-31T16:23:33;9.25;;;2.97;;
20095;SDS011;10207;50.942;6.900;2022-10-31T16:25:59;14.70;;;3.25;;
20095;SDS011;10207;50.942;6.900;2022-10-31T16:28:25;11.50;;;4.00;;
20095;SDS011;10207;50.942;6.900;2022-10-31T16:30:52;8.98;;;3.05;;
20095;SDS011;10207;50.942;6.900;2022-10-31T16:33:29;13.50;;;2.97;;
20095;SDS011;10207;50.942;6.900;2022-10-31T16:35:56;11.98;;;3.65;;
20095;SDS011;10207;50.942;6.900;2022-10-31T16:38:23;8.93;;;3.35;;
20095;SDS011;10207;50.942;6.900;2022-10-31T16:40:49;7.15;;;2.97;;
20095;SDS011;10207;50.942;6.900;2022-10-31T16:43:15;9.25;;;3.75;;
20095;SDS011;10207;50.942;6.900;2022-10-31T16:45:45;6.05;;;3.13;;
20095;SDS011;10207;50.942;6.900;2022-10-31T16:48:13;13.32;;;4.00;;